sensor_id;sensor_type;location;lat;lon;timestamp;P1;durP1;ratioP1;P2;durP2;ratioP2
6725;SDS011;3400;48.506;11.692;2023-02-04T00:01:58;7.67;;;2.97;;
6725;SDS011;3400;48.506;11.692;2023-02-04T00:04:26;8.10;;;2.80;;
6725;SDS011;3400;48.506;11.692;2023-02-04T00:06:54;10.17;;;3.03;;
6725;SDS011;3400;48.506;11.692;2023-02-04T00:09:22;10.40;;;3.70;;
6725;SDS011;3400;48.506;11.692;2023-02-04T00:11:51;6.47;;;2.77;;
6725;SDS011;3400;48.506;11.692;2023-02-04T00:14:19;8.07;;;3.13;;
6725;SDS011;3400;48.506;11.692;2023-02-04T00:16:47;9.10;;;3.10;;
6725;SDS011;3400;48.506;11.692;2023-02-04T00:19:14;8.97;;;3.30;;
6725;SDS011;3400;48.506;11.692;2023-02-04T00:21:42;9.53;;;3.10;;
6725;SDS011;3400;48.506;11.692;2023-02-04T00:24:10;8.30;;;3.27;;
6725;SDS011;3400;48.506;11.692;2023-02-04T00:26:38;14.80;;;3.07;;
6725;SDS011;3400;48.506;11.692;2023-02-04T00:29:07;8.13;;;3.10;;
6725;SDS011;3400;48.506;11.692;2023-02-04T00:31:36;14.67;;;3.33;;
6725;SDS011;3400;48.506;11.692;2023-02-04T00:34:04;11.30;;;3.17;;
6725;SDS011;3400;48.506;11.692;2023-02-04T00:36:32;18.17;;;4.17;;
6725;SDS011;3400;48.506;11.692;2023-02-04T00:39:00;10.50;;;3.80;;
6725;SDS011;3400;48.506;11.692;2023-02-04T00:41:28;13.37;;;3.10;;
6725;SDS011;3400;48.506;11.692;2023-02-04T00:43:55;9.67;;;3.20;;
6725;SDS011;3400;48.506;11.692;2023-02-04T00:46:25;18.47;;;4.47;;
6725;SDS011;3400;48.506;11.692;2023-02-04T00:48:52;18.37;;;4.07;;
6725;SDS011;3400;48.506;11.692;2023-02-04T00:51:21;8.70;;;3.13;;
6725;SDS011;3400;48.506;11.692;2023-02-04T00:53:49;19.50;;;3.93;;
6725;SDS011;3400;48.506;11.692;2023-02-04T00:56:16;8.03;;;3.47;;
6725;SDS011;3400;48.506;11.692;2023-02-04T00:58:44;9.20;;;3.70;;
6725;SDS011;3400;48.506;11.692;2023-02-04T01:01:12;13.63;;;3.23;;
6725;SDS011;3400;48.506;11.692;2023-02-04T01:03:41;12.10;;;3.27;;
6725;SDS011;3400;48.506;11.692;2023-02-04T01:06:09;11.60;;;3.13;;
6725;SDS011;3400;48.506;11.692;2023-02-04T01:08:37;11.90;;;3.23;;
6725;SDS011;3400;48.506;11.692;2023-02-04T01:11:05;15.87;;;4.17;;
6725;SDS011;3400;48.506;11.692;2023-02-04T01:13:33;9.63;;;3.93;;
6725;SDS011;3400;48.506;11.692;2023-02-04T01:16:01;13.50;;;3.67;;
6725;SDS011;3400;48.506;11.692;2023-02-04T01:18:29;15.07;;;4.30;;
6725;SDS011;3400;48.506;11.692;2023-02-04T01:20:58;11.07;;;3.40;;
6725;SDS011;3400;48.506;11.692;2023-02-04T01:23:26;7.70;;;3.13;;
6725;SDS011;3400;48.506;11.692;2023-02-04T01:25:54;15.83;;;4.43;;
6725;SDS011;3400;48.506;11.692;2023-02-04T01:28:22;9.87;;;3.60;;
6725;SDS011;3400;48.506;11.692;2023-02-04T01:30:50;16.07;;;4.00;;
6725;SDS011;3400;48.506;11.692;2023-02-04T01:33:20;11.00;;;4.10;;
6725;SDS011;3400;48.506;11.692;2023-02-04T01:35:49;10.60;;;4.33;;
6725;SDS011;3400;48.506;11.692;2023-02-04T01:38:18;16.07;;;4.30;;
6725;SDS011;3400;48.506;11.692;2023-02-04T01:40:46;14.57;;;3.67;;
6725;SDS011;3400;48.506;11.692;2023-02-04T01:43:14;12.50;;;3.70;;
6725;SDS011;3400;48.506;11.692;2023-02-04T01:45:43;12.73;;;4.20;;
6725;SDS011;3400;48.506;11.692;2023-02-04T01:48:11;13.47;;;4.50;;
6725;SDS011;3400;48.506;11.692;2023-02-04T01:50:45;10.40;;;3.80;;
6725;SDS011;3400;48.506;11.692;2023-02-04T01:53:13;10.20;;;4.13;;
6725;SDS011;3400;48.506;11.692;2023-02-04T01:55:43;13.80;;;4.03;;
6725;SDS011;3400;48.506;11.692;2023-02-04T01:58:11;11.13;;;4.67;;
6725;SDS011;3400;48.506;11.692;2023-02-04T02:00:39;15.23;;;4.33;;
6725;SDS011;3400;48.506;11.692;2023-02-04T02:03:07;13.63;;;4.20;;
6725;SDS011;3400;48.506;11.692;2023-02-04T02:05:36;11.37;;;3.73;;
6725;SDS011;3400;48.506;11.692;2023-02-04T02:08:05;12.67;;;4.70;;
6725;SDS011;3400;48.506;11.692;2023-02-04T02:10:37;16.50;;;4.20;;
6725;SDS011;3400;48.506;11.692;2023-02-04T02:13:07;8.33;;;3.90;;
6725;SDS011;3400;48.506;11.692;2023-02-04T02:15:37;12.10;;;4.20;;
6725;SDS011;3400;48.506;11.692;2023-02-04T02:18:05;15.80;;;4.10;;
6725;SDS011;3400;48.506;11.692;2023-02-04T02:20:34;11.87;;;4.27;;
6725;SDS011;3400;48.506;11.692;2023-02-04T02:23:03;13.97;;;4.03;;
6725;SDS011;3400;48.506;11.692;2023-02-04T02:25:33;14.10;;;4.20;;
6725;SDS011;3400;48.506;11.692;2023-02-04T02:28:03;13.77;;;3.90;;
6725;SDS011;3400;48.506;11.692;2023-02-04T02:30:32;22.03;;;5.17;;
6725;SDS011;3400;48.506;11.692;2023-02-04T02:33:00;11.87;;;4.47;;
6725;SDS011;3400;48.506;11.692;2023-02-04T02:35:28;14.60;;;4.57;;
6725;SDS011;3400;48.506;11.692;2023-02-04T02:37:56;15.47;;;4.43;;
6725;SDS011;3400;48.506;11.692;2023-02-04T02:40:24;10.37;;;3.47;;
6725;SDS011;3400;48.506;11.692;2023-02-04T02:42:53;14.63;;;4.27;;
6725;SDS011;3400;48.506;11.692;2023-02-04T02:45:22;9.43;;;3.43;;
6725;SDS011;3400;48.506;11.692;2023-02-04T02:47:50;18.93;;;4.57;;
6725;SDS011;3400;48.506;11.692;2023-02-04T02:50:19;12.93;;;4.13;;
6725;SDS011;3400;48.506;11.692;2023-02-04T02:52:48;17.90;;;3.93;;
6725;SDS011;3400;48.506;11.692;2023-02-04T02:55:16;12.50;;;4.23;;
6725;SDS011;3400;48.506;11.692;2023-02-04T02:57:45;15.40;;;4.10;;
6725;SDS011;3400;48.506;11.692;2023-02-04T03:00:15;6.63;;;3.70;;
6725;SDS011;3400;48.506;11.692;2023-02-04T03:02:43;24.80;;;5.10;;
6725;SDS011;3400;48.506;11.692;2023-02-04T03:05:12;15.93;;;4.33;;
6725;SDS011;3400;48.506;11.692;2023-02-04T03:07:40;16.40;;;3.33;;
6725;SDS011;3400;48.506;11.692;2023-02-04T03:10:08;16.27;;;4.20;;
6725;SDS011;3400;48.506;11.692;2023-02-04T03:12:37;17.83;;;4.63;;
6725;SDS011;3400;48.506;11.692;2023-02-04T03:15:05;15.43;;;4.10;;
6725;SDS011;3400;48.506;11.692;2023-02-04T03:17:35;13.13;;;3.93;;
6725;SDS011;3400;48.506;11.692;2023-02-04T03:20:03;12.30;;;3.40;;
6725;SDS011;3400;48.506;11.692;2023-02-04T03:22:31;18.90;;;4.67;;
6725;SDS011;3400;48.506;11.692;2023-02-04T03:24:59;12.37;;;4.40;;
6725;SDS011;3400;48.506;11.692;2023-02-04T03:27:27;18.30;;;3.50;;
6725;SDS011;3400;48.506;11.692;2023-02-04T03:29:55;15.70;;;4.00;;
6725;SDS011;3400;48.506;11.692;2023-02-04T03:32:23;12.47;;;3.50;;
6725;SDS011;3400;48.506;11.692;2023-02-04T03:34:53;9.37;;;3.17;;
6725;SDS011;3400;48.506;11.692;2023-02-04T03:37:20;19.30;;;3.63;;
6725;SDS011;3400;48.506;11.692;2023-02-04T03:39:48;13.77;;;3.80;;
6725;SDS011;3400;48.506;11.692;2023-02-04T03:42:16;14.87;;;3.90;;
6725;SDS011;3400;48.506;11.692;2023-02-04T03:44:44;12.10;;;3.37;;
6725;SDS011;3400;48.506;11.692;2023-02-04T03:47:12;14.03;;;4.03;;
6725;SDS011;3400;48.506;11.692;2023-02-04T03:49:39;12.97;;;3.33;;
6725;SDS011;3400;48.506;11.692;2023-02-04T03:52:09;18.43;;;4.60;;
6725;SDS011;3400;48.506;11.692;2023-02-04T03:54:36;23.57;;;4.60;;
6725;SDS011;3400;48.506;11.692;2023-02-04T03:57:05;10.77;;;3.60;;
6725;SDS011;3400;48.506;11.692;2023-02-04T03:59:32;21.17;;;4.70;;
6725;SDS011;3400;48.506;11.692;2023-02-04T04:02:00;10.90;;;3.13;;
6725;SDS011;3400;48.506;11.692;2023-02-04T04:04:28;7.90;;;3.07;;
6725;SDS011;3400;48.506;11.692;2023-02-04T04:06:56;14.50;;;3.37;;
6725;SDS011;3400;48.506;11.692;2023-02-04T04:09:25;14.93;;;3.33;;
6725;SDS011;3400;48.506;11.692;2023-02-04T04:11:54;10.03;;;2.93;;
6725;SDS011;3400;48.506;11.692;2023-02-04T04:14:22;12.90;;;3.17;;
6725;SDS011;3400;48.506;11.692;2023-02-04T04:16:50;14.03;;;3.57;;
6725;SDS011;3400;48.506;11.692;2023-02-04T04:19:17;10.03;;;2.83;;
6725;SDS011;3400;48.506;11.692;2023-02-04T04:21:45;10.30;;;3.17;;
6725;SDS011;3400;48.506;11.692;2023-02-04T04:24:13;14.03;;;3.73;;
6725;SDS011;3400;48.506;11.692;2023-02-04T04:26:42;13.77;;;3.93;;
6725;SDS011;3400;48.506;11.692;2023-02-04T04:29:10;11.53;;;3.17;;
6725;SDS011;3400;48.506;11.692;2023-02-04T04:31:38;16.93;;;5.00;;
6725;SDS011;3400;48.506;11.692;2023-02-04T04:34:06;15.77;;;3.97;;
6725;SDS011;3400;48.506;11.692;2023-02-04T04:36:34;9.27;;;3.63;;
6725;SDS011;3400;48.506;11.692;2023-02-04T04:39:01;16.10;;;4.97;;
6725;SDS011;3400;48.506;11.692;2023-02-04T04:41:29;9.47;;;3.57;;
6725;SDS011;3400;48.506;11.692;2023-02-04T04:43:59;14.50;;;3.40;;
6725;SDS011;3400;48.506;11.692;2023-02-04T04:46:26;14.47;;;3.83;;
6725;SDS011;3400;48.506;11.692;2023-02-04T04:48:54;11.80;;;3.30;;
6725;SDS011;3400;48.506;11.692;2023-02-04T04:51:22;10.87;;;3.63;;
6725;SDS011;3400;48.506;11.692;2023-02-04T04:53:50;12.80;;;3.13;;
6725;SDS011;3400;48.506;11.692;2023-02-04T04:56:18;9.93;;;3.33;;
6725;SDS011;3400;48.506;11.692;2023-02-04T04:58:45;11.83;;;3.73;;
6725;SDS011;3400;48.506;11.692;2023-02-04T05:01:15;14.30;;;3.77;;
6725;SDS011;3400;48.506;11.692;2023-02-04T05:03:42;9.57;;;3.57;;
6725;SDS011;3400;48.506;11.692;2023-02-04T05:06:10;12.37;;;3.50;;
6725;SDS011;3400;48.506;11.692;2023-02-04T05:08:38;11.63;;;3.00;;
6725;SDS011;3400;48.506;11.692;2023-02-04T05:11:06;13.27;;;3.67;;
6725;SDS011;3400;48.506;11.692;2023-02-04T05:13:34;13.97;;;3.20;;
6725;SDS011;3400;48.506;11.692;2023-02-04T05:16:02;10.20;;;3.20;;
6725;SDS011;3400;48.506;11.692;2023-02-04T05:18:31;10.87;;;3.27;;
6725;SDS011;3400;48.506;11.692;2023-02-04T05:20:59;14.20;;;3.70;;
6725;SDS011;3400;48.506;11.692;2023-02-04T05:23:27;11.23;;;3.43;;
6725;SDS011;3400;48.506;11.692;2023-02-04T05:25:55;10.37;;;3.40;;
6725;SDS011;3400;48.506;11.692;2023-02-04T05:28:23;18.33;;;3.90;;
6725;SDS011;3400;48.506;11.692;2023-02-04T05:30:50;17.33;;;3.53;;
6725;SDS011;3400;48.506;11.692;2023-02-04T05:33:18;15.07;;;3.27;;
6725;SDS011;3400;48.506;11.692;2023-02-04T05:35:47;14.37;;;3.90;;
6725;SDS011;3400;48.506;11.692;2023-02-04T05:38:15;16.00;;;3.63;;
6725;SDS011;3400;48.506;11.692;2023-02-04T05:40:43;11.47;;;3.37;;
6725;SDS011;3400;48.506;11.692;2023-02-04T05:43:11;9.30;;;3.07;;
6725;SDS011;3400;48.506;11.692;2023-02-04T05:45:39;10.87;;;3.07;;
6725;SDS011;3400;48.506;11.692;2023-02-04T05:48:07;16.13;;;3.03;;
6725;SDS011;3400;48.506;11.692;2023-02-04T05:50:35;13.60;;;2.90;;
6725;SDS011;3400;48.506;11.692;2023-02-04T05:53:10;10.90;;;3.10;;
6725;SDS011;3400;48.506;11.692;2023-02-04T05:55:38;10.40;;;3.27;;
6725;SDS011;3400;48.506;11.692;2023-02-04T05:58:05;8.17;;;2.83;;
6725;SDS011;3400;48.506;11.692;2023-02-04T06:00:33;9.53;;;2.97;;
6725;SDS011;3400;48.506;11.692;2023-02-04T06:03:01;8.10;;;2.80;;
6725;SDS011;3400;48.506;11.692;2023-02-04T06:05:30;13.27;;;3.27;;
6725;SDS011;3400;48.506;11.692;2023-02-04T06:07:58;15.03;;;3.20;;
6725;SDS011;3400;48.506;11.692;2023-02-04T06:10:27;15.37;;;4.20;;
6725;SDS011;3400;48.506;11.692;2023-02-04T06:12:55;14.77;;;4.40;;
6725;SDS011;3400;48.506;11.692;2023-02-04T06:15:23;11.00;;;3.30;;
6725;SDS011;3400;48.506;11.692;2023-02-04T06:17:51;11.03;;;2.83;;
6725;SDS011;3400;48.506;11.692;2023-02-04T06:20:19;10.77;;;3.07;;
6725;SDS011;3400;48.506;11.692;2023-02-04T06:22:47;6.37;;;2.63;;
6725;SDS011;3400;48.506;11.692;2023-02-04T06:25:16;12.10;;;3.00;;
6725;SDS011;3400;48.506;11.692;2023-02-04T06:27:45;13.80;;;3.20;;
6725;SDS011;3400;48.506;11.692;2023-02-04T06:30:13;18.60;;;3.70;;
6725;SDS011;3400;48.506;11.692;2023-02-04T06:32:41;12.53;;;3.10;;
6725;SDS011;3400;48.506;11.692;2023-02-04T06:35:09;12.23;;;2.97;;
6725;SDS011;3400;48.506;11.692;2023-02-04T06:37:38;11.73;;;3.07;;
6725;SDS011;3400;48.506;11.692;2023-02-04T06:40:06;11.43;;;3.17;;
6725;SDS011;3400;48.506;11.692;2023-02-04T06:42:35;14.73;;;3.03;;
6725;SDS011;3400;48.506;11.692;2023-02-04T06:45:04;9.23;;;2.33;;
6725;SDS011;3400;48.506;11.692;2023-02-04T06:47:32;12.30;;;3.50;;
6725;SDS011;3400;48.506;11.692;2023-02-04T06:50:00;10.13;;;2.43;;
6725;SDS011;3400;48.506;11.692;2023-02-04T06:52:28;8.27;;;2.50;;
6725;SDS011;3400;48.506;11.692;2023-02-04T06:54:56;7.80;;;3.10;;
6725;SDS011;3400;48.506;11.692;2023-02-04T06:57:24;10.77;;;2.77;;
6725;SDS011;3400;48.506;11.692;2023-02-04T06:59:52;8.20;;;3.47;;
6725;SDS011;3400;48.506;11.692;2023-02-04T07:02:21;16.63;;;3.43;;
6725;SDS011;3400;48.506;11.692;2023-02-04T07:04:49;8.40;;;2.30;;
6725;SDS011;3400;48.506;11.692;2023-02-04T07:07:17;12.17;;;3.73;;
6725;SDS011;3400;48.506;11.692;2023-02-04T07:09:45;9.90;;;2.97;;
6725;SDS011;3400;48.506;11.692;2023-02-04T07:12:13;9.57;;;3.20;;
6725;SDS011;3400;48.506;11.692;2023-02-04T07:14:40;13.10;;;3.37;;
6725;SDS011;3400;48.506;11.692;2023-02-04T07:17:08;14.13;;;3.33;;
6725;SDS011;3400;48.506;11.692;2023-02-04T07:19:37;9.70;;;3.07;;
6725;SDS011;3400;48.506;11.692;2023-02-04T07:22:05;9.70;;;3.30;;
6725;SDS011;3400;48.506;11.692;2023-02-04T07:24:33;12.63;;;3.87;;
6725;SDS011;3400;48.506;11.692;2023-02-04T07:27:01;5.93;;;2.47;;
6725;SDS011;3400;48.506;11.692;2023-02-04T07:29:29;10.47;;;3.53;;
6725;SDS011;3400;48.506;11.692;2023-02-04T07:31:56;6.40;;;2.50;;
6725;SDS011;3400;48.506;11.692;2023-02-04T07:34:24;11.40;;;2.63;;
6725;SDS011;3400;48.506;11.692;2023-02-04T07:36:53;7.73;;;2.70;;
6725;SDS011;3400;48.506;11.692;2023-02-04T07:39:21;9.87;;;3.20;;
6725;SDS011;3400;48.506;11.692;2023-02-04T07:41:49;11.17;;;3.10;;
6725;SDS011;3400;48.506;11.692;2023-02-04T07:44:22;11.27;;;2.90;;
6725;SDS011;3400;48.506;11.692;2023-02-04T07:46:50;12.60;;;3.47;;
6725;SDS011;3400;48.506;11.692;2023-02-04T07:49:17;7.77;;;2.70;;
6725;SDS011;3400;48.506;11.692;2023-02-04T07:51:45;7.60;;;3.10;;
6725;SDS011;3400;48.506;11.692;2023-02-04T07:54:14;13.80;;;2.83;;
6725;SDS011;3400;48.506;11.692;2023-02-04T07:56:42;8.57;;;3.03;;
6725;SDS011;3400;48.506;11.692;2023-02-04T07:59:10;11.27;;;2.97;;
6725;SDS011;3400;48.506;11.692;2023-02-04T08:01:38;9.70;;;2.93;;
6725;SDS011;3400;48.506;11.692;2023-02-04T08:04:06;10.67;;;3.23;;
6725;SDS011;3400;48.506;11.692;2023-02-04T08:06:34;10.03;;;2.90;;
6725;SDS011;3400;48.506;11.692;2023-02-04T08:09:02;12.70;;;2.93;;
6725;SDS011;3400;48.506;11.692;2023-02-04T08:11:31;10.80;;;3.73;;
6725;SDS011;3400;48.506;11.692;2023-02-04T08:13:59;9.13;;;3.13;;
6725;SDS011;3400;48.506;11.692;2023-02-04T08:16:27;7.70;;;3.13;;
6725;SDS011;3400;48.506;11.692;2023-02-04T08:18:55;14.63;;;3.83;;
6725;SDS011;3400;48.506;11.692;2023-02-04T08:21:23;7.67;;;2.90;;
6725;SDS011;3400;48.506;11.692;2023-02-04T08:23:50;10.63;;;2.80;;
6725;SDS011;3400;48.506;11.692;2023-02-04T08:26:18;6.07;;;2.20;;
6725;SDS011;3400;48.506;11.692;2023-02-04T08:28:48;4.13;;;1.53;;
6725;SDS011;3400;48.506;11.692;2023-02-04T08:31:15;1.63;;;1.13;;
6725;SDS011;3400;48.506;11.692;2023-02-04T08:33:43;1.97;;;1.43;;
6725;SDS011;3400;48.506;11.692;2023-02-04T08:36:11;4.07;;;1.60;;
6725;SDS011;3400;48.506;11.692;2023-02-04T08:38:39;3.10;;;0.97;;
6725;SDS011;3400;48.506;11.692;2023-02-04T08:41:09;2.20;;;1.53;;
6725;SDS011;3400;48.506;11.692;2023-02-04T08:43:37;6.73;;;1.30;;
6725;SDS011;3400;48.506;11.692;2023-02-04T08:46:06;2.40;;;1.37;;
6725;SDS011;3400;48.506;11.692;2023-02-04T08:48:34;2.67;;;1.40;;
6725;SDS011;3400;48.506;11.692;2023-02-04T08:51:02;1.47;;;1.03;;
6725;SDS011;3400;48.506;11.692;2023-02-04T08:53:30;1.57;;;1.10;;
6725;SDS011;3400;48.506;11.692;2023-02-04T08:55:58;6.87;;;1.40;;
6725;SDS011;3400;48.506;11.692;2023-02-04T08:58:25;3.27;;;1.27;;
6725;SDS011;3400;48.506;11.692;2023-02-04T09:00:53;3.80;;;1.30;;
6725;SDS011;3400;48.506;11.692;2023-02-04T09:03:22;3.90;;;1.00;;
6725;SDS011;3400;48.506;11.692;2023-02-04T09:05:50;3.70;;;1.57;;
6725;SDS011;3400;48.506;11.692;2023-02-04T09:08:18;1.10;;;1.07;;
6725;SDS011;3400;48.506;11.692;2023-02-04T09:10:46;1.67;;;1.10;;
6725;SDS011;3400;48.506;11.692;2023-02-04T09:13:14;3.07;;;1.20;;
6725;SDS011;3400;48.506;11.692;2023-02-04T09:15:42;2.43;;;0.90;;
6725;SDS011;3400;48.506;11.692;2023-02-04T09:18:10;1.93;;;1.00;;
6725;SDS011;3400;48.506;11.692;2023-02-04T09:20:42;1.07;;;0.97;;
6725;SDS011;3400;48.506;11.692;2023-02-04T09:23:10;6.70;;;3.80;;
6725;SDS011;3400;48.506;11.692;2023-02-04T09:25:39;1.67;;;1.10;;
6725;SDS011;3400;48.506;11.692;2023-02-04T09:28:07;1.63;;;0.70;;
6725;SDS011;3400;48.506;11.692;2023-02-04T09:30:36;2.43;;;0.90;;
6725;SDS011;3400;48.506;11.692;2023-02-04T09:33:04;1.67;;;1.23;;
6725;SDS011;3400;48.506;11.692;2023-02-04T09:35:32;3.73;;;0.73;;
6725;SDS011;3400;48.506;11.692;2023-02-04T09:38:01;2.47;;;1.20;;
6725;SDS011;3400;48.506;11.692;2023-02-04T09:40:29;2.00;;;1.10;;
6725;SDS011;3400;48.506;11.692;2023-02-04T09:42:59;1.20;;;1.10;;
6725;SDS011;3400;48.506;11.692;2023-02-04T09:45:27;2.33;;;0.93;;
6725;SDS011;3400;48.506;11.692;2023-02-04T09:47:56;1.37;;;0.80;;
6725;SDS011;3400;48.506;11.692;2023-02-04T09:50:25;1.40;;;1.13;;
6725;SDS011;3400;48.506;11.692;2023-02-04T09:52:54;1.33;;;0.70;;
6725;SDS011;3400;48.506;11.692;2023-02-04T09:55:26;0.83;;;0.73;;
6725;SDS011;3400;48.506;11.692;2023-02-04T09:57:55;1.10;;;1.10;;
6725;SDS011;3400;48.506;11.692;2023-02-04T10:00:23;1.40;;;0.80;;
6725;SDS011;3400;48.506;11.692;2023-02-04T10:02:52;1.27;;;0.60;;
6725;SDS011;3400;48.506;11.692;2023-02-04T10:05:23;1.90;;;0.77;;
6725;SDS011;3400;48.506;11.692;2023-02-04T10:07:51;0.80;;;0.67;;
6725;SDS011;3400;48.506;11.692;2023-02-04T10:10:20;1.13;;;0.67;;
6725;SDS011;3400;48.506;11.692;2023-02-04T10:12:51;1.73;;;0.57;;
6725;SDS011;3400;48.506;11.692;2023-02-04T10:15:20;1.93;;;1.10;;
6725;SDS011;3400;48.506;11.692;2023-02-04T10:17:48;0.70;;;0.70;;
6725;SDS011;3400;48.506;11.692;2023-02-04T10:20:18;0.60;;;0.60;;
6725;SDS011;3400;48.506;11.692;2023-02-04T10:22:47;0.70;;;0.70;;
6725;SDS011;3400;48.506;11.692;2023-02-04T10:25:16;0.90;;;0.90;;
6725;SDS011;3400;48.506;11.692;2023-02-04T10:27:48;2.63;;;0.60;;
6725;SDS011;3400;48.506;11.692;2023-02-04T10:30:19;0.63;;;0.63;;
6725;SDS011;3400;48.506;11.692;2023-02-04T10:32:47;0.57;;;0.57;;
6725;SDS011;3400;48.506;11.692;2023-02-04T10:35:16;1.23;;;0.90;;
6725;SDS011;3400;48.506;11.692;2023-02-04T10:37:44;0.77;;;0.77;;
6725;SDS011;3400;48.506;11.692;2023-02-04T10:40:25;0.67;;;0.57;;
6725;SDS011;3400;48.506;11.692;2023-02-04T10:42:53;0.57;;;0.57;;
6725;SDS011;3400;48.506;11.692;2023-02-04T10:45:24;0.93;;;0.80;;
6725;SDS011;3400;48.506;11.692;2023-02-04T10:47:53;0.93;;;0.60;;
6725;SDS011;3400;48.506;11.692;2023-02-04T10:50:21;0.57;;;0.57;;
6725;SDS011;3400;48.506;11.692;2023-02-04T10:52:50;0.60;;;0.60;;
6725;SDS011;3400;48.506;11.692;2023-02-04T10:55:21;0.50;;;0.50;;
6725;SDS011;3400;48.506;11.692;2023-02-04T10:57:48;0.80;;;0.80;;
6725;SDS011;3400;48.506;11.692;2023-02-04T11:00:17;0.67;;;0.67;;
6725;SDS011;3400;48.506;11.692;2023-02-04T11:02:55;1.03;;;0.90;;
6725;SDS011;3400;48.506;11.692;2023-02-04T11:05:25;1.23;;;1.00;;
6725;SDS011;3400;48.506;11.692;2023-02-04T11:07:56;0.90;;;0.90;;
6725;SDS011;3400;48.506;11.692;2023-02-04T11:10:24;1.30;;;0.80;;
6725;SDS011;3400;48.506;11.692;2023-02-04T11:13:01;1.07;;;0.97;;
6725;SDS011;3400;48.506;11.692;2023-02-04T11:15:36;0.90;;;0.90;;
6725;SDS011;3400;48.506;11.692;2023-02-04T11:18:07;0.73;;;0.73;;
6725;SDS011;3400;48.506;11.692;2023-02-04T11:20:35;0.90;;;0.77;;
6725;SDS011;3400;48.506;11.692;2023-02-04T11:23:14;0.77;;;0.70;;
6725;SDS011;3400;48.506;11.692;2023-02-04T11:25:42;1.00;;;1.00;;
6725;SDS011;3400;48.506;11.692;2023-02-04T11:28:13;1.13;;;0.70;;
6725;SDS011;3400;48.506;11.692;2023-02-04T11:30:41;0.73;;;0.73;;
6725;SDS011;3400;48.506;11.692;2023-02-04T11:33:21;0.70;;;0.70;;
6725;SDS011;3400;48.506;11.692;2023-02-04T11:36:02;2.20;;;0.77;;
6725;SDS011;3400;48.506;11.692;2023-02-04T11:38:31;0.90;;;0.90;;
6725;SDS011;3400;48.506;11.692;2023-02-04T11:40:59;2.37;;;0.60;;
6725;SDS011;3400;48.506;11.692;2023-02-04T11:43:27;0.80;;;0.80;;
6725;SDS011;3400;48.506;11.692;2023-02-04T11:46:00;0.70;;;0.70;;
6725;SDS011;3400;48.506;11.692;2023-02-04T11:48:30;0.87;;;0.80;;
6725;SDS011;3400;48.506;11.692;2023-02-04T11:50:59;0.80;;;0.80;;
6725;SDS011;3400;48.506;11.692;2023-02-04T11:53:28;0.60;;;0.60;;
6725;SDS011;3400;48.506;11.692;2023-02-04T11:55:56;0.63;;;0.63;;
6725;SDS011;3400;48.506;11.692;2023-02-04T11:58:25;0.80;;;0.60;;
6725;SDS011;3400;48.506;11.692;2023-02-04T12:00:55;0.50;;;0.50;;
6725;SDS011;3400;48.506;11.692;2023-02-04T12:03:24;0.60;;;0.60;;
6725;SDS011;3400;48.506;11.692;2023-02-04T12:05:54;0.50;;;0.50;;
6725;SDS011;3400;48.506;11.692;2023-02-04T12:08:24;1.50;;;0.93;;
6725;SDS011;3400;48.506;11.692;2023-02-04T12:10:58;1.37;;;0.60;;
6725;SDS011;3400;48.506;11.692;2023-02-04T12:13:26;1.23;;;0.80;;
6725;SDS011;3400;48.506;11.692;2023-02-04T12:15:57;0.50;;;0.50;;
6725;SDS011;3400;48.506;11.692;2023-02-04T12:18:25;0.57;;;0.57;;
6725;SDS011;3400;48.506;11.692;2023-02-04T12:20:55;1.13;;;0.80;;
6725;SDS011;3400;48.506;11.692;2023-02-04T12:23:23;0.70;;;0.60;;
6725;SDS011;3400;48.506;11.692;2023-02-04T12:25:51;0.53;;;0.53;;
6725;SDS011;3400;48.506;11.692;2023-02-04T12:28:19;0.60;;;0.50;;
6725;SDS011;3400;48.506;11.692;2023-02-04T12:30:47;0.60;;;0.60;;
6725;SDS011;3400;48.506;11.692;2023-02-04T12:33:15;1.83;;;0.70;;
6725;SDS011;3400;48.506;11.692;2023-02-04T12:35:43;0.53;;;0.53;;
6725;SDS011;3400;48.506;11.692;2023-02-04T12:38:12;1.00;;;0.80;;
6725;SDS011;3400;48.506;11.692;2023-02-04T12:40:40;0.50;;;0.50;;
6725;SDS011;3400;48.506;11.692;2023-02-04T12:43:08;0.63;;;0.63;;
6725;SDS011;3400;48.506;11.692;2023-02-04T12:45:36;0.87;;;0.57;;
6725;SDS011;3400;48.506;11.692;2023-02-04T12:48:04;0.43;;;0.43;;
6725;SDS011;3400;48.506;11.692;2023-02-04T12:50:32;0.63;;;0.50;;
6725;SDS011;3400;48.506;11.692;2023-02-04T12:53:00;0.40;;;0.33;;
6725;SDS011;3400;48.506;11.692;2023-02-04T12:55:30;0.50;;;0.50;;
6725;SDS011;3400;48.506;11.692;2023-02-04T12:57:58;0.63;;;0.50;;
6725;SDS011;3400;48.506;11.692;2023-02-04T13:00:25;0.63;;;0.63;;
6725;SDS011;3400;48.506;11.692;2023-02-04T13:02:53;0.77;;;0.70;;
6725;SDS011;3400;48.506;11.692;2023-02-04T13:05:23;0.70;;;0.70;;
6725;SDS011;3400;48.506;11.692;2023-02-04T13:07:51;0.60;;;0.60;;
6725;SDS011;3400;48.506;11.692;2023-02-04T13:10:19;2.10;;;0.50;;
6725;SDS011;3400;48.506;11.692;2023-02-04T13:12:50;0.37;;;0.30;;
6725;SDS011;3400;48.506;11.692;2023-02-04T13:15:18;0.70;;;0.40;;
6725;SDS011;3400;48.506;11.692;2023-02-04T13:17:46;0.50;;;0.50;;
6725;SDS011;3400;48.506;11.692;2023-02-04T13:20:14;1.00;;;0.73;;
6725;SDS011;3400;48.506;11.692;2023-02-04T13:22:42;1.03;;;0.70;;
6725;SDS011;3400;48.506;11.692;2023-02-04T13:25:10;1.70;;;0.90;;
6725;SDS011;3400;48.506;11.692;2023-02-04T13:27:38;0.63;;;0.63;;
6725;SDS011;3400;48.506;11.692;2023-02-04T13:30:08;0.60;;;0.60;;
6725;SDS011;3400;48.506;11.692;2023-02-04T13:32:36;0.87;;;0.87;;
6725;SDS011;3400;48.506;11.692;2023-02-04T13:35:04;0.80;;;0.80;;
6725;SDS011;3400;48.506;11.692;2023-02-04T13:37:32;0.73;;;0.73;;
6725;SDS011;3400;48.506;11.692;2023-02-04T13:40:00;0.90;;;0.90;;
6725;SDS011;3400;48.506;11.692;2023-02-04T13:42:28;1.03;;;1.03;;
6725;SDS011;3400;48.506;11.692;2023-02-04T13:44:55;1.33;;;0.80;;
6725;SDS011;3400;48.506;11.692;2023-02-04T13:47:25;1.33;;;1.10;;
6725;SDS011;3400;48.506;11.692;2023-02-04T13:49:53;0.70;;;0.70;;
6725;SDS011;3400;48.506;11.692;2023-02-04T13:52:21;0.97;;;0.97;;
6725;SDS011;3400;48.506;11.692;2023-02-04T13:54:48;1.27;;;0.80;;
6725;SDS011;3400;48.506;11.692;2023-02-04T13:57:16;1.30;;;1.30;;
6725;SDS011;3400;48.506;11.692;2023-02-04T13:59:45;1.27;;;0.90;;
6725;SDS011;3400;48.506;11.692;2023-02-04T14:02:13;1.07;;;0.97;;
6725;SDS011;3400;48.506;11.692;2023-02-04T14:04:43;1.40;;;1.30;;
6725;SDS011;3400;48.506;11.692;2023-02-04T14:07:10;7.70;;;4.53;;
6725;SDS011;3400;48.506;11.692;2023-02-04T14:09:38;1.97;;;1.67;;
6725;SDS011;3400;48.506;11.692;2023-02-04T14:12:06;1.10;;;1.10;;
6725;SDS011;3400;48.506;11.692;2023-02-04T14:14:34;2.23;;;1.33;;
6725;SDS011;3400;48.506;11.692;2023-02-04T14:17:02;1.30;;;1.10;;
6725;SDS011;3400;48.506;11.692;2023-02-04T14:19:30;2.83;;;2.30;;
6725;SDS011;3400;48.506;11.692;2023-02-04T14:21:59;1.90;;;1.57;;
6725;SDS011;3400;48.506;11.692;2023-02-04T14:24:27;3.80;;;1.93;;
6725;SDS011;3400;48.506;11.692;2023-02-04T14:26:55;1.20;;;1.10;;
6725;SDS011;3400;48.506;11.692;2023-02-04T14:29:23;0.80;;;0.80;;
6725;SDS011;3400;48.506;11.692;2023-02-04T14:31:51;0.87;;;0.70;;
6725;SDS011;3400;48.506;11.692;2023-02-04T14:34:19;2.20;;;1.70;;
6725;SDS011;3400;48.506;11.692;2023-02-04T14:36:46;1.40;;;1.30;;
6725;SDS011;3400;48.506;11.692;2023-02-04T14:39:16;1.67;;;1.10;;
6725;SDS011;3400;48.506;11.692;2023-02-04T14:41:44;1.17;;;0.87;;
6725;SDS011;3400;48.506;11.692;2023-02-04T14:44:12;0.97;;;0.97;;
6725;SDS011;3400;48.506;11.692;2023-02-04T14:46:45;0.70;;;0.70;;
6725;SDS011;3400;48.506;11.692;2023-02-04T14:49:13;1.10;;;1.10;;
6725;SDS011;3400;48.506;11.692;2023-02-04T14:51:41;2.60;;;1.80;;
6725;SDS011;3400;48.506;11.692;2023-02-04T14:54:09;6.57;;;3.23;;
6725;SDS011;3400;48.506;11.692;2023-02-04T14:56:38;5.10;;;3.47;;
6725;SDS011;3400;48.506;11.692;2023-02-04T14:59:06;4.80;;;3.00;;
6725;SDS011;3400;48.506;11.692;2023-02-04T15:01:34;3.23;;;2.63;;
6725;SDS011;3400;48.506;11.692;2023-02-04T15:04:02;2.60;;;2.40;;